Time;durP1;ratioP1;P1;durP2;ratioP2;P2;SDS_P1;SDS_P2;PMS_P1;PMS_P2;Temp;Humidity;BMP_temperature;BMP_pressure;BME280_temperature;BME280_humidity;BME280_pressure;Samples;Min_cycle;Max_cycle;Signal;HPM_P1;HPM_P2
2022/06/29 00:01:16;;;;;;;14.30;3.57;;;;;;;;;;10222044;29;20412;-83
2022/06/29 00:06:19;;;;;;;11.27;3.20;;;;;;;;;;10218616;29;20424;-83
2022/06/29 00:11:22;;;;;;;12.82;3.72;;;;;;;;;;10211925;28;20435;-83
2022/06/29 00:16:23;;;;;;;11.23;3.35;;;;;;;;;;10223300;29;20854;-83
2022/06/29 00:21:25;;;;;;;9.95;3.40;;;;;;;;;;10224796;29;20944;-83
2022/06/29 00:26:29;;;;;;;15.50;3.50;;;;;;;;;;10223183;29;20493;-83
2022/06/29 00:31:30;;;;;;;10.05;3.60;;;;;;;;;;10229062;29;20486;-83
2022/06/29 00:36:32;;;;;;;12.88;3.95;;;;;;;;;;10239136;29;20445;-84
2022/06/29 00:41:39;;;;;;;13.75;3.78;;;;;;;;;;10227351;29;20423;-84
2022/06/29 00:46:49;;;;;;;13.17;3.30;;;;;;;;;;10218390;29;20448;-83
2022/06/29 00:51:58;;;;;;;11.15;3.15;;;;;;;;;;10221989;28;20444;-83
2022/06/29 00:57:06;;;;;;;16.13;3.63;;;;;;;;;;10226551;28;20421;-83
2022/06/29 01:02:08;;;;;;;10.95;3.20;;;;;;;;;;10224821;29;20423;-83
2022/06/29 01:07:12;;;;;;;10.68;3.92;;;;;;;;;;10229342;29;20790;-82
2022/06/29 01:12:16;;;;;;;9.15;3.17;;;;;;;;;;10226594;29;20430;-84
2022/06/29 01:17:18;;;;;;;13.60;3.40;;;;;;;;;;10215896;29;20498;-83
2022/06/29 01:22:22;;;;;;;9.07;3.08;;;;;;;;;;10223450;29;20424;-82
2022/06/29 01:27:24;;;;;;;11.45;3.35;;;;;;;;;;10228856;29;20791;-83
2022/06/29 01:32:26;;;;;;;9.43;3.20;;;;;;;;;;10226185;29;20512;-83
2022/06/29 01:37:29;;;;;;;12.50;3.33;;;;;;;;;;10227655;29;20420;-83
2022/06/29 01:42:31;;;;;;;10.88;3.40;;;;;;;;;;10224689;29;20408;-84
2022/06/29 01:47:33;;;;;;;11.02;3.00;;;;;;;;;;10226140;29;20598;-81
2022/06/29 01:52:36;;;;;;;10.52;3.30;;;;;;;;;;10219679;29;20480;-83
2022/06/29 01:57:38;;;;;;;15.30;3.55;;;;;;;;;;10228671;29;20424;-83
2022/06/29 02:02:40;;;;;;;13.15;3.90;;;;;;;;;;10235452;28;20411;-84
2022/06/29 02:07:43;;;;;;;9.40;3.40;;;;;;;;;;10246072;29;20450;-84
2022/06/29 02:12:45;;;;;;;12.70;3.25;;;;;;;;;;10246044;28;20511;-83
2022/06/29 02:17:47;;;;;;;12.38;3.38;;;;;;;;;;10246232;29;20443;-84
2022/06/29 02:22:50;;;;;;;8.75;2.90;;;;;;;;;;10245406;29;20454;-84
2022/06/29 02:27:52;;;;;;;13.50;3.83;;;;;;;;;;10245925;28;20488;-84
2022/06/29 02:38:14;;;;;;;11.47;3.50;;;;;;;;;;10245416;29;20404;-84
2022/06/29 02:43:16;;;;;;;12.77;3.83;;;;;;;;;;10244909;29;20479;-84
2022/06/29 02:48:19;;;;;;;12.50;3.47;;;;;;;;;;10245252;28;20442;-83
2022/06/29 02:53:22;;;;;;;10.57;3.50;;;;;;;;;;10244215;29;20762;-83
2022/06/29 02:58:24;;;;;;;11.38;3.80;;;;;;;;;;10244069;28;20420;-82
2022/06/29 03:03:26;;;;;;;9.30;3.28;;;;;;;;;;10243746;29;20499;-82
2022/06/29 03:08:29;;;;;;;10.80;3.78;;;;;;;;;;10244200;29;20412;-82
2022/06/29 03:13:31;;;;;;;8.80;3.50;;;;;;;;;;10230274;28;20424;-83
2022/06/29 03:18:33;;;;;;;10.95;3.35;;;;;;;;;;10242814;29;20502;-82
2022/06/29 03:23:36;;;;;;;9.68;3.45;;;;;;;;;;10243615;29;20494;-82
2022/06/29 03:28:38;;;;;;;11.03;4.17;;;;;;;;;;10241539;29;20452;-83
2022/06/29 03:33:40;;;;;;;12.52;4.22;;;;;;;;;;10238995;29;21113;-82
2022/06/29 03:38:43;;;;;;;12.07;4.50;;;;;;;;;;10242379;29;20435;-82
2022/06/29 03:43:45;;;;;;;13.57;5.65;;;;;;;;;;10232024;29;20432;-82
2022/06/29 03:48:47;;;;;;;19.60;8.05;;;;;;;;;;10242613;29;20439;-82
2022/06/29 03:53:51;;;;;;;12.02;5.18;;;;;;;;;;10242845;29;20936;-82
2022/06/29 03:58:53;;;;;;;12.00;4.90;;;;;;;;;;10241478;29;20491;-83
2022/06/29 04:03:56;;;;;;;15.20;4.90;;;;;;;;;;10239042;29;20423;-82
2022/06/29 04:08:59;;;;;;;11.55;4.57;;;;;;;;;;10225416;29;20429;-83
2022/06/29 04:14:01;;;;;;;10.60;4.72;;;;;;;;;;10216943;29;20516;-82
2022/06/29 04:19:03;;;;;;;10.50;3.58;;;;;;;;;;10220598;29;20499;-82
2022/06/29 04:24:07;;;;;;;14.52;4.38;;;;;;;;;;10229831;28;20415;-82
2022/06/29 04:29:09;;;;;;;13.50;4.38;;;;;;;;;;10228042;29;21255;-82
2022/06/29 04:34:11;;;;;;;12.95;4.40;;;;;;;;;;10228621;29;20487;-82
2022/06/29 04:39:14;;;;;;;11.75;4.10;;;;;;;;;;10227552;29;20405;-82
2022/06/29 04:44:16;;;;;;;13.77;4.53;;;;;;;;;;10231233;29;20436;-82
2022/06/29 04:49:18;;;;;;;10.50;4.37;;;;;;;;;;10248980;29;20501;-81
2022/06/29 04:54:22;;;;;;;13.10;4.20;;;;;;;;;;10240386;29;20585;-82
2022/06/29 04:59:24;;;;;;;13.60;4.90;;;;;;;;;;10225554;29;20984;-83
2022/06/29 05:04:26;;;;;;;11.37;4.67;;;;;;;;;;10223532;29;20460;-84
2022/06/29 05:09:29;;;;;;;9.68;4.13;;;;;;;;;;10222939;29;20507;-84
2022/06/29 05:14:31;;;;;;;11.55;4.07;;;;;;;;;;10213813;29;20513;-84
2022/06/29 05:19:32;;;;;;;6.90;3.85;;;;;;;;;;10220726;29;20514;-83
2022/06/29 05:24:37;;;;;;;8.05;4.45;;;;;;;;;;10224833;29;20438;-83
2022/06/29 05:29:39;;;;;;;7.55;3.85;;;;;;;;;;10218236;29;20498;-83
2022/06/29 05:34:41;;;;;;;6.75;3.70;;;;;;;;;;10221850;29;20433;-84
2022/06/29 05:39:44;;;;;;;8.30;4.07;;;;;;;;;;10219172;29;20409;-84
2022/06/29 05:44:47;;;;;;;9.02;4.35;;;;;;;;;;10223416;29;20412;-84
2022/06/29 05:49:49;;;;;;;10.13;3.80;;;;;;;;;;10220349;29;20418;-85
2022/06/29 05:54:53;;;;;;;5.53;4.28;;;;;;;;;;10221544;29;20917;-84
2022/06/29 05:59:54;;;;;;;8.00;4.30;;;;;;;;;;10219265;29;20500;-84
2022/06/29 06:04:56;;;;;;;6.03;4.00;;;;;;;;;;10217869;29;20416;-84
2022/06/29 06:09:59;;;;;;;10.93;4.00;;;;;;;;;;10212757;29;20418;-84
2022/06/29 06:15:03;;;;;;;8.07;4.17;;;;;;;;;;10221647;29;20431;-83
2022/06/29 06:20:05;;;;;;;7.95;3.88;;;;;;;;;;10218194;29;20531;-83
2022/06/29 06:25:11;;;;;;;9.35;4.15;;;;;;;;;;10217246;29;21605;-82
2022/06/29 06:30:13;;;;;;;8.53;3.80;;;;;;;;;;10225884;29;20500;-84
2022/06/29 06:35:15;;;;;;;10.80;4.13;;;;;;;;;;10225739;29;20526;-82
2022/06/29 06:45:38;;;;;;;7.50;4.00;;;;;;;;;;10231556;29;20487;-83
2022/06/29 06:50:40;;;;;;;8.30;3.90;;;;;;;;;;10237476;28;20431;-83
2022/06/29 06:55:43;;;;;;;6.63;3.80;;;;;;;;;;10237737;29;20432;-82
2022/06/29 07:00:45;;;;;;;11.27;4.53;;;;;;;;;;10234608;29;20422;-83
2022/06/29 07:05:47;;;;;;;10.23;4.30;;;;;;;;;;10232606;29;20415;-82
2022/06/29 07:10:50;;;;;;;10.40;4.60;;;;;;;;;;10217738;29;20778;-83
2022/06/29 07:15:52;;;;;;;10.07;4.60;;;;;;;;;;10220776;29;20433;-82
2022/06/29 07:20:53;;;;;;;8.70;4.57;;;;;;;;;;10230212;29;20420;-81
2022/06/29 07:25:57;;;;;;;11.73;5.57;;;;;;;;;;10217414;29;21250;-83
2022/06/29 07:30:58;;;;;;;10.53;5.00;;;;;;;;;;10224133;29;20776;-82
2022/06/29 07:36:00;;;;;;;12.50;5.55;;;;;;;;;;10221292;29;20438;-83
2022/06/29 07:41:04;;;;;;;10.68;5.78;;;;;;;;;;10240315;29;20415;-83
2022/06/29 07:46:06;;;;;;;11.07;5.57;;;;;;;;;;10229726;29;20428;-83
2022/06/29 07:51:08;;;;;;;11.93;6.07;;;;;;;;;;10224545;29;20409;-82
2022/06/29 07:56:11;;;;;;;13.00;6.05;;;;;;;;;;10218259;29;20428;-82
2022/06/29 08:01:13;;;;;;;13.27;6.70;;;;;;;;;;10233354;28;20427;-80
2022/06/29 08:06:15;;;;;;;11.20;6.72;;;;;;;;;;10231887;29;21056;-82
2022/06/29 08:11:19;;;;;;;16.27;6.68;;;;;;;;;;10228282;29;20419;-80
2022/06/29 08:16:20;;;;;;;12.52;7.07;;;;;;;;;;10224784;29;20427;-81
2022/06/29 08:21:22;;;;;;;8.93;6.22;;;;;;;;;;10235832;29;20498;-80
2022/06/29 08:26:25;;;;;;;10.97;6.30;;;;;;;;;;10237814;29;20473;-82
2022/06/29 08:31:27;;;;;;;12.47;7.93;;;;;;;;;;10233740;29;20512;-81
2022/06/29 08:36:29;;;;;;;13.00;7.82;;;;;;;;;;10212867;29;20429;-79
2022/06/29 08:41:34;;;;;;;12.57;8.25;;;;;;;;;;10219692;29;20896;-80
2022/06/29 08:46:35;;;;;;;12.52;8.55;;;;;;;;;;10224897;29;20865;-79
2022/06/29 08:51:37;;;;;;;13.43;8.77;;;;;;;;;;10227070;29;20412;-80
2022/06/29 08:56:41;;;;;;;14.00;8.10;;;;;;;;;;10222922;29;20465;-81
2022/06/29 09:01:42;;;;;;;12.27;8.43;;;;;;;;;;10223265;29;20431;-80
2022/06/29 09:06:45;;;;;;;14.43;8.77;;;;;;;;;;10225410;29;20423;-81
2022/06/29 09:11:51;;;;;;;14.43;9.02;;;;;;;;;;10232436;28;20424;-80
2022/06/29 09:16:59;;;;;;;15.38;8.73;;;;;;;;;;10233899;29;20432;-81
2022/06/29 09:22:01;;;;;;;14.85;8.93;;;;;;;;;;10230347;29;20409;-80
2022/06/29 09:27:06;;;;;;;13.73;8.60;;;;;;;;;;10230766;29;20415;-81
2022/06/29 09:32:14;;;;;;;16.23;9.03;;;;;;;;;;10230804;29;20420;-80
2022/06/29 09:37:17;;;;;;;15.25;9.40;;;;;;;;;;10232716;29;20793;-81
2022/06/29 09:42:22;;;;;;;15.03;9.47;;;;;;;;;;10223082;29;20500;-81
2022/06/29 09:47:24;;;;;;;15.98;9.52;;;;;;;;;;10215004;29;20410;-80
2022/06/29 09:52:26;;;;;;;13.50;8.80;;;;;;;;;;10206127;29;20433;-79
2022/06/29 09:57:31;;;;;;;16.63;9.23;;;;;;;;;;10212033;29;20433;-81
2022/06/29 10:02:42;;;;;;;15.15;9.05;;;;;;;;;;10217061;29;20443;-81
2022/06/29 10:07:45;;;;;;;16.90;9.37;;;;;;;;;;10218441;29;20418;-83
2022/06/29 10:18:51;;;;;;;15.98;10.00;;;;;;;;;;10213445;29;20401;-82
2022/06/29 10:23:54;;;;;;;15.32;9.68;;;;;;;;;;10216547;28;20452;-81
2022/06/29 10:28:58;;;;;;;11.50;7.77;;;;;;;;;;10234658;29;20404;-81
2022/06/29 10:33:59;;;;;;;12.70;8.13;;;;;;;;;;10228633;29;20531;-82
2022/06/29 10:39:12;;;;;;;16.40;9.45;;;;;;;;;;10224888;29;20443;-82
2022/06/29 10:44:15;;;;;;;18.33;9.73;;;;;;;;;;10225589;29;20889;-85
2022/06/29 10:49:21;;;;;;;17.85;9.35;;;;;;;;;;10234081;29;20423;-83
2022/06/29 10:54:24;;;;;;;16.70;9.63;;;;;;;;;;10241724;29;20432;-84
2022/06/29 10:59:34;;;;;;;18.23;10.32;;;;;;;;;;10235796;29;20856;-84
2022/06/29 11:04:36;;;;;;;18.63;11.48;;;;;;;;;;10227526;29;20433;-81
2022/06/29 11:20:32;;;;;;;17.55;10.15;;;;;;;;;;10228083;28;20444;-80
2022/06/29 11:25:36;;;;;;;17.80;10.30;;;;;;;;;;10232521;29;20408;-78
2022/06/29 11:30:42;;;;;;;10.63;5.70;;;;;;;;;;10233341;29;20419;-78
2022/06/29 11:35:47;;;;;;;11.45;6.13;;;;;;;;;;10222984;28;20472;-79
2022/06/29 11:40:53;;;;;;;14.38;7.22;;;;;;;;;;10226363;29;20430;-80
2022/06/29 11:45:57;;;;;;;14.93;9.60;;;;;;;;;;10208486;29;20424;-83
2022/06/29 11:51:02;;;;;;;16.58;10.85;;;;;;;;;;10226102;29;20428;-80
2022/06/29 11:56:09;;;;;;;16.33;10.40;;;;;;;;;;10230097;29;20428;-81
2022/06/29 12:01:13;;;;;;;18.37;11.10;;;;;;;;;;10226225;29;20423;-81
2022/06/29 12:06:16;;;;;;;16.65;11.55;;;;;;;;;;10227500;29;20450;-81
2022/06/29 12:11:18;;;;;;;15.90;10.25;;;;;;;;;;10234056;29;20414;-80
2022/06/29 12:16:21;;;;;;;12.70;8.18;;;;;;;;;;10233604;29;20461;-80
2022/06/29 12:21:23;;;;;;;11.00;7.70;;;;;;;;;;10233073;29;20408;-79
2022/06/29 12:26:25;;;;;;;10.18;7.30;;;;;;;;;;10232907;29;20418;-81
2022/06/29 12:31:29;;;;;;;11.17;5.63;;;;;;;;;;10233388;29;20412;-80
2022/06/29 12:36:31;;;;;;;9.55;5.72;;;;;;;;;;10229602;28;20424;-80
2022/06/29 12:41:33;;;;;;;9.80;5.60;;;;;;;;;;10237294;28;20408;-80
2022/06/29 12:46:39;;;;;;;11.85;6.30;;;;;;;;;;10236439;28;20420;-81
2022/06/29 12:51:41;;;;;;;12.23;6.72;;;;;;;;;;10225521;28;20416;-81
2022/06/29 12:56:43;;;;;;;10.93;5.80;;;;;;;;;;10224160;28;20523;-81
2022/06/29 13:01:47;;;;;;;10.60;5.88;;;;;;;;;;10231296;28;20419;-81
2022/06/29 13:06:49;;;;;;;10.95;5.82;;;;;;;;;;10232548;28;20477;-81
2022/06/29 13:11:53;;;;;;;11.02;6.60;;;;;;;;;;10225559;28;20440;-81
2022/06/29 13:16:56;;;;;;;9.35;6.47;;;;;;;;;;10231876;28;20518;-80
2022/06/29 13:21:58;;;;;;;12.95;6.68;;;;;;;;;;10226269;28;20992;-81
2022/06/29 13:27:00;;;;;;;11.68;6.40;;;;;;;;;;10229652;28;20431;-82
2022/06/29 13:32:04;;;;;;;9.18;6.00;;;;;;;;;;10233576;28;20966;-82
2022/06/29 13:37:06;;;;;;;11.48;6.82;;;;;;;;;;10234243;28;20432;-81
2022/06/29 13:42:08;;;;;;;11.38;6.85;;;;;;;;;;10233531;28;20416;-81
2022/06/29 13:47:11;;;;;;;10.37;7.33;;;;;;;;;;10231228;28;20412;-81
2022/06/29 13:52:13;;;;;;;13.37;7.50;;;;;;;;;;10228549;28;20431;-82
2022/06/29 13:57:15;;;;;;;13.35;7.53;;;;;;;;;;10234721;28;20450;-82
2022/06/29 14:02:18;;;;;;;10.88;7.10;;;;;;;;;;10239203;28;20400;-82
2022/06/29 14:07:22;;;;;;;15.23;7.50;;;;;;;;;;10261532;23;20426;-83
2022/06/29 14:12:24;;;;;;;11.98;8.00;;;;;;;;;;10259094;28;20512;-82
2022/06/29 14:17:27;;;;;;;12.98;8.25;;;;;;;;;;10259120;28;20934;-82
2022/06/29 14:22:29;;;;;;;14.98;8.70;;;;;;;;;;10270476;28;20420;-83
2022/06/29 14:27:31;;;;;;;13.18;9.18;;;;;;;;;;10259158;28;20430;-83
2022/06/29 14:32:34;;;;;;;15.68;9.85;;;;;;;;;;10258054;28;20920;-82
2022/06/29 14:37:36;;;;;;;20.05;10.55;;;;;;;;;;10266851;28;20441;-84
2022/06/29 14:42:39;;;;;;;16.38;10.27;;;;;;;;;;10256578;28;20419;-84
2022/06/29 14:47:43;;;;;;;16.60;9.30;;;;;;;;;;10255709;28;20519;-84
2022/06/29 14:52:46;;;;;;;15.93;8.13;;;;;;;;;;10258983;28;20905;-84
2022/06/29 14:57:47;;;;;;;15.80;8.23;;;;;;;;;;10263377;28;20486;-85
2022/06/29 15:02:51;;;;;;;18.23;8.40;;;;;;;;;;10259395;28;20418;-85
2022/06/29 15:07:52;;;;;;;15.57;7.90;;;;;;;;;;10259446;28;21304;-83
2022/06/29 15:12:54;;;;;;;15.37;8.50;;;;;;;;;;10254318;28;20416;-84
2022/06/29 15:17:57;;;;;;;14.95;8.80;;;;;;;;;;10266206;28;20422;-83
2022/06/29 15:22:59;;;;;;;16.70;9.02;;;;;;;;;;10260445;28;20426;-85
2022/06/29 15:28:01;;;;;;;16.27;8.02;;;;;;;;;;10255270;28;20417;-84
2022/06/29 15:33:04;;;;;;;16.10;7.17;;;;;;;;;;10259889;28;20419;-85
2022/06/29 15:43:25;;;;;;;14.95;7.05;;;;;;;;;;10260917;28;20408;-85
2022/06/29 15:48:29;;;;;;;13.13;6.93;;;;;;;;;;10259588;28;20511;-85
2022/06/29 15:58:50;;;;;;;15.37;6.20;;;;;;;;;;10264911;28;20418;-85
2022/06/29 16:03:53;;;;;;;11.88;6.35;;;;;;;;;;10270481;28;20525;-85
2022/06/29 16:08:55;;;;;;;11.40;6.10;;;;;;;;;;10258859;28;20868;-84
2022/06/29 16:13:57;;;;;;;11.43;6.05;;;;;;;;;;10256609;28;20920;-84
2022/06/29 16:19:00;;;;;;;10.97;5.40;;;;;;;;;;10255766;28;20432;-85
2022/06/29 16:24:02;;;;;;;10.50;5.78;;;;;;;;;;10263268;28;20917;-83
2022/06/29 16:29:04;;;;;;;9.77;5.43;;;;;;;;;;10263733;28;20421;-84
2022/06/29 16:34:07;;;;;;;13.00;4.87;;;;;;;;;;10259133;28;20436;-85
2022/06/29 16:39:09;;;;;;;8.93;4.67;;;;;;;;;;10263567;28;20426;-84
2022/06/29 16:44:11;;;;;;;12.25;5.10;;;;;;;;;;10252211;28;20904;-84
2022/06/29 16:49:15;;;;;;;10.02;5.35;;;;;;;;;;10257893;28;20418;-85
2022/06/29 16:54:17;;;;;;;9.63;4.45;;;;;;;;;;10254973;28;20412;-84
2022/06/29 16:59:20;;;;;;;9.77;4.75;;;;;;;;;;10253486;28;20412;-84
2022/06/29 17:04:23;;;;;;;10.73;4.68;;;;;;;;;;10263522;28;20454;-85
2022/06/29 17:09:25;;;;;;;11.50;4.97;;;;;;;;;;10256704;28;20776;-85
2022/06/29 17:14:26;;;;;;;8.37;4.33;;;;;;;;;;10261614;28;20490;-84
2022/06/29 17:19:30;;;;;;;11.05;4.75;;;;;;;;;;10260507;28;20462;-85
2022/06/29 17:24:31;;;;;;;12.27;4.90;;;;;;;;;;10258598;28;20425;-84
2022/06/29 17:29:33;;;;;;;10.93;4.50;;;;;;;;;;10262951;28;20414;-89
2022/06/29 17:34:36;;;;;;;13.13;4.53;;;;;;;;;;10250513;28;20424;-88
2022/06/29 17:39:38;;;;;;;12.13;4.90;;;;;;;;;;10255507;28;20476;-88
2022/06/29 17:44:40;;;;;;;13.23;4.82;;;;;;;;;;10253582;28;20912;-88
2022/06/29 17:49:43;;;;;;;13.07;4.97;;;;;;;;;;10255627;28;20434;-89
2022/06/29 17:54:45;;;;;;;9.97;4.60;;;;;;;;;;10253137;28;20483;-89
2022/06/29 17:59:48;;;;;;;12.30;4.80;;;;;;;;;;10250655;28;20430;-89
2022/06/29 18:04:52;;;;;;;10.05;5.32;;;;;;;;;;10244890;28;20960;-87
2022/06/29 18:09:54;;;;;;;9.63;4.82;;;;;;;;;;10254175;28;20418;-85
2022/06/29 18:14:55;;;;;;;9.02;4.75;;;;;;;;;;10258687;28;20435;-85
2022/06/29 18:19:58;;;;;;;13.75;5.22;;;;;;;;;;10257974;28;20421;-85
2022/06/29 18:25:00;;;;;;;10.95;4.85;;;;;;;;;;10252005;28;20780;-84
2022/06/29 18:30:02;;;;;;;15.33;6.00;;;;;;;;;;10252712;28;20815;-84
2022/06/29 18:35:06;;;;;;;10.20;5.13;;;;;;;;;;10253501;28;20594;-84
2022/06/29 18:40:09;;;;;;;11.27;5.03;;;;;;;;;;10251424;28;20490;-85
2022/06/29 18:45:11;;;;;;;11.65;4.88;;;;;;;;;;10259578;28;20783;-85
2022/06/29 18:50:15;;;;;;;8.70;5.10;;;;;;;;;;10265926;28;20421;-85
2022/06/29 18:55:17;;;;;;;13.43;5.50;;;;;;;;;;10268520;28;20418;-83
2022/06/29 19:00:19;;;;;;;14.88;5.95;;;;;;;;;;10261381;28;20418;-84
2022/06/29 19:05:22;;;;;;;13.83;5.67;;;;;;;;;;10256889;28;20430;-83
2022/06/29 19:10:24;;;;;;;12.27;5.82;;;;;;;;;;10252489;28;20851;-84
2022/06/29 19:15:26;;;;;;;11.07;5.80;;;;;;;;;;10262843;28;20419;-83
2022/06/29 19:20:29;;;;;;;11.57;5.60;;;;;;;;;;10259720;28;20454;-85
2022/06/29 19:25:31;;;;;;;11.73;6.03;;;;;;;;;;10261610;28;20419;-84
2022/06/29 19:30:33;;;;;;;10.43;5.40;;;;;;;;;;10273590;28;20423;-84
2022/06/29 19:35:36;;;;;;;11.90;6.43;;;;;;;;;;10271420;28;20423;-84
2022/06/29 19:40:38;;;;;;;10.97;6.07;;;;;;;;;;10271077;28;20497;-84
2022/06/29 19:45:40;;;;;;;12.73;6.30;;;;;;;;;;10272681;28;20407;-84
2022/06/29 19:50:43;;;;;;;14.55;6.55;;;;;;;;;;10270380;28;20431;-83
2022/06/29 19:55:45;;;;;;;12.88;7.13;;;;;;;;;;10262462;28;20426;-84
2022/06/29 20:00:47;;;;;;;13.47;7.67;;;;;;;;;;10275200;28;20410;-85
2022/06/29 20:05:51;;;;;;;14.75;7.88;;;;;;;;;;10272816;28;20435;-83
2022/06/29 20:10:53;;;;;;;15.90;8.52;;;;;;;;;;10273019;28;20415;-83
2022/06/29 20:15:54;;;;;;;13.50;8.77;;;;;;;;;;10277011;28;20456;-83
2022/06/29 20:20:58;;;;;;;16.63;10.37;;;;;;;;;;10267269;28;20416;-84
2022/06/29 20:26:00;;;;;;;18.65;10.23;;;;;;;;;;10271448;28;20414;-84
2022/06/29 20:31:03;;;;;;;20.98;10.30;;;;;;;;;;10272267;28;20684;-83
2022/06/29 20:36:07;;;;;;;20.60;10.27;;;;;;;;;;10269693;28;20799;-84
2022/06/29 20:41:09;;;;;;;17.63;10.57;;;;;;;;;;10270434;28;20415;-83
2022/06/29 20:46:10;;;;;;;15.77;9.43;;;;;;;;;;10272842;28;20422;-82
2022/06/29 20:51:13;;;;;;;16.35;8.68;;;;;;;;;;10270304;28;20515;-83
2022/06/29 20:56:15;;;;;;;16.10;9.50;;;;;;;;;;10274246;28;20433;-83
2022/06/29 21:01:17;;;;;;;15.77;8.90;;;;;;;;;;10273318;28;20418;-83
2022/06/29 21:06:21;;;;;;;18.70;9.00;;;;;;;;;;10255336;28;20412;-84
2022/06/29 21:11:24;;;;;;;19.07;9.70;;;;;;;;;;10262104;28;20412;-87
2022/06/29 21:16:26;;;;;;;16.05;9.57;;;;;;;;;;10260902;28;20439;-85
2022/06/29 21:21:30;;;;;;;19.05;9.98;;;;;;;;;;10258431;28;20445;-83
2022/06/29 21:26:32;;;;;;;18.30;9.30;;;;;;;;;;10259797;28;20413;-84
2022/06/29 21:31:34;;;;;;;16.35;8.98;;;;;;;;;;10267985;28;20410;-84
2022/06/29 21:36:37;;;;;;;17.23;10.00;;;;;;;;;;10268498;28;20517;-85
2022/06/29 21:41:39;;;;;;;19.88;10.48;;;;;;;;;;10267937;28;20442;-85
2022/06/29 21:46:41;;;;;;;20.48;10.57;;;;;;;;;;10273223;28;20501;-84
2022/06/29 21:51:44;;;;;;;13.52;10.20;;;;;;;;;;10273076;28;20447;-84
2022/06/29 21:56:46;;;;;;;17.08;10.55;;;;;;;;;;10275212;28;20521;-83
2022/06/29 22:01:48;;;;;;;16.17;9.85;;;;;;;;;;10273180;28;20411;-84
2022/06/29 22:06:51;;;;;;;17.00;10.52;;;;;;;;;;10273936;28;20426;-84
2022/06/29 22:11:53;;;;;;;18.17;10.77;;;;;;;;;;10276243;28;20903;-84
2022/06/29 22:16:55;;;;;;;16.30;10.80;;;;;;;;;;10259948;28;20569;-83
2022/06/29 22:21:58;;;;;;;16.17;11.05;;;;;;;;;;10267950;28;20422;-84
2022/06/29 22:27:00;;;;;;;21.35;11.35;;;;;;;;;;10274737;28;20784;-84
2022/06/29 22:32:02;;;;;;;15.93;11.20;;;;;;;;;;10277204;28;20410;-84
2022/06/29 22:37:05;;;;;;;17.92;11.48;;;;;;;;;;10269498;28;20434;-84
2022/06/29 22:42:08;;;;;;;16.13;12.07;;;;;;;;;;10264228;28;20406;-83
2022/06/29 22:47:09;;;;;;;18.95;11.70;;;;;;;;;;10271875;28;20779;-84
2022/06/29 22:52:13;;;;;;;17.95;11.90;;;;;;;;;;10267666;28;20747;-84
2022/06/29 22:57:14;;;;;;;19.00;11.70;;;;;;;;;;10266700;28;20907;-84
2022/06/29 23:02:16;;;;;;;18.85;10.88;;;;;;;;;;10270123;28;20493;-84
2022/06/29 23:07:21;;;;;;;15.67;10.30;;;;;;;;;;10276715;28;20920;-84
2022/06/29 23:12:32;;;;;;;14.65;9.82;;;;;;;;;;10266301;28;20775;-84
2022/06/29 23:17:34;;;;;;;15.10;10.35;;;;;;;;;;10266924;28;20422;-83
2022/06/29 23:22:37;;;;;;;17.33;10.13;;;;;;;;;;10276165;28;20406;-84
2022/06/29 23:27:39;;;;;;;16.10;10.67;;;;;;;;;;10269638;28;20498;-83
2022/06/29 23:32:41;;;;;;;17.00;11.25;;;;;;;;;;10265215;28;20434;-84
2022/06/29 23:37:44;;;;;;;16.17;10.50;;;;;;;;;;10263353;28;20438;-84
2022/06/29 23:42:45;;;;;;;18.75;11.25;;;;;;;;;;10260344;28;20411;-84
2022/06/29 23:47:47;;;;;;;19.98;11.50;;;;;;;;;;10265465;28;20407;-83
2022/06/29 23:52:50;;;;;;;15.90;11.40;;;;;;;;;;10263027;28;20729;-84
2022/06/29 23:57:52;;;;;;;18.70;12.02;;;;;;;;;;10268511;28;20518;-84
